Time;durP1;ratioP1;P1;durP2;ratioP2;P2;SDS_P1;SDS_P2;PMS_P1;PMS_P2;Temp;Humidity;BMP_temperature;BMP_pressure;BME280_temperature;BME280_humidity;BME280_pressure;Samples;Min_cycle;Max_cycle;Signal;HPM_P1;HPM_P2
2021/10/14 00:00:57;;;;;;;0.00;0.00;;;10.20;83.40;;;;;;5018832;28;20436;-76
2021/10/14 00:03:23;;;;;;;0.00;0.00;;;10.20;83.30;;;;;;5035861;28;20029;-75
2021/10/14 00:05:49;;;;;;;0.00;0.00;;;10.20;83.30;;;;;;5035759;28;20086;-76
2021/10/14 00:08:15;;;;;;;0.00;0.00;;;10.10;83.40;;;;;;5035767;28;20382;-75
2021/10/14 00:10:41;;;;;;;0.00;0.00;;;10.20;83.60;;;;;;5035734;28;20022;-75
2021/10/14 00:13:07;;;;;;;0.00;0.00;;;10.20;83.50;;;;;;5035772;28;20148;-75
2021/10/14 00:15:32;;;;;;;0.00;0.00;;;10.10;83.40;;;;;;5018168;28;20022;-75
2021/10/14 00:17:59;;;;;;;0.00;0.00;;;10.10;83.50;;;;;;5035289;28;20106;-75
2021/10/14 00:20:25;;;;;;;0.00;0.00;;;10.10;83.40;;;;;;5036088;28;20112;-75
2021/10/14 00:22:51;;;;;;;0.00;0.00;;;10.10;83.50;;;;;;5035565;28;20033;-75
2021/10/14 00:25:19;;;;;;;0.00;0.00;;;10.10;83.70;;;;;;5035855;28;20045;-75
2021/10/14 00:27:46;;;;;;;0.00;0.00;;;10.20;83.80;;;;;;5034855;28;20030;-75
2021/10/14 00:30:12;;;;;;;0.00;0.00;;;10.20;83.70;;;;;;5035661;28;20037;-75
2021/10/14 00:32:38;;;;;;;0.00;0.00;;;10.20;83.70;;;;;;5035334;28;20049;-75
2021/10/14 00:35:04;;;;;;;0.00;0.00;;;10.20;83.50;;;;;;5035822;28;20057;-76
2021/10/14 00:37:30;;;;;;;0.00;0.00;;;10.20;83.40;;;;;;5035794;28;20385;-76
2021/10/14 00:39:56;;;;;;;0.00;0.00;;;10.20;83.40;;;;;;5035278;28;20022;-76
2021/10/14 00:42:22;;;;;;;0.00;0.00;;;10.20;83.60;;;;;;5035062;28;20040;-76
2021/10/14 00:44:54;;;;;;;0.00;0.00;;;10.20;83.60;;;;;;5034948;28;20398;-76
2021/10/14 00:47:29;;;;;;;0.00;0.00;;;10.20;83.60;;;;;;5017515;28;20025;-76
2021/10/14 00:49:55;;;;;;;0.00;0.00;;;10.20;83.50;;;;;;5034827;28;20167;-77
2021/10/14 00:52:23;;;;;;;0.00;0.00;;;10.20;83.50;;;;;;5035347;28;20424;-77
2021/10/14 00:54:52;;;;;;;0.00;0.00;;;10.10;83.50;;;;;;5034818;28;20029;-76
2021/10/14 00:57:19;;;;;;;0.00;0.00;;;10.10;84.10;;;;;;5035079;28;20064;-76
2021/10/14 00:59:45;;;;;;;0.00;0.00;;;10.10;83.70;;;;;;5035002;28;20030;-75
2021/10/14 01:02:11;;;;;;;0.00;0.00;;;10.20;83.70;;;;;;5034732;28;20525;-77
2021/10/14 01:04:37;;;;;;;0.00;0.00;;;10.20;83.70;;;;;;5034616;28;20041;-76
2021/10/14 01:07:03;;;;;;;0.00;0.00;;;10.20;83.70;;;;;;5034173;28;20032;-77
2021/10/14 01:09:29;;;;;;;0.00;0.00;;;10.20;83.60;;;;;;5016851;28;20051;-77
2021/10/14 01:12:02;;;;;;;0.00;0.00;;;10.20;83.50;;;;;;5016931;28;20032;-75
2021/10/14 01:14:28;;;;;;;0.00;0.00;;;10.20;83.50;;;;;;5034648;28;20531;-76
2021/10/14 01:16:54;;;;;;;0.00;0.00;;;10.20;83.40;;;;;;5034374;28;20064;-77
2021/10/14 01:19:19;;;;;;;0.00;0.00;;;10.20;83.50;;;;;;5034709;28;20056;-77
2021/10/14 01:21:48;;;;;;;0.00;0.00;;;10.20;83.50;;;;;;5016862;28;20116;-76
2021/10/14 01:24:14;;;;;;;0.00;0.00;;;10.20;83.40;;;;;;5034248;28;20029;-75
2021/10/14 01:26:40;;;;;;;0.00;0.00;;;10.10;83.30;;;;;;5034243;28;20359;-75
2021/10/14 01:29:07;;;;;;;0.00;0.00;;;10.20;83.40;;;;;;5016740;28;20041;-75
2021/10/14 01:31:32;;;;;;;0.00;0.00;;;10.20;83.60;;;;;;5034546;28;20029;-75
2021/10/14 01:34:00;;;;;;;0.00;0.00;;;10.10;83.60;;;;;;5033793;28;20115;-75
2021/10/14 01:36:26;;;;;;;0.00;0.00;;;10.20;83.70;;;;;;5034249;28;20032;-75
2021/10/14 01:38:52;;;;;;;0.00;0.00;;;10.10;83.40;;;;;;5033624;28;20033;-76
2021/10/14 01:41:18;;;;;;;0.00;0.00;;;10.20;83.50;;;;;;5034096;28;20535;-76
2021/10/14 01:43:44;;;;;;;0.00;0.00;;;10.20;83.40;;;;;;5034301;28;20086;-76
2021/10/14 01:46:10;;;;;;;0.00;0.00;;;10.10;83.30;;;;;;5034078;28;20025;-76
2021/10/14 01:48:36;;;;;;;0.00;0.00;;;10.20;83.50;;;;;;5033818;28;20041;-77
2021/10/14 01:51:04;;;;;;;0.00;0.00;;;10.20;83.70;;;;;;5033679;28;20030;-76
2021/10/14 01:53:30;;;;;;;0.00;0.00;;;10.10;83.60;;;;;;5034340;28;20033;-77
2021/10/14 01:55:55;;;;;;;0.00;0.00;;;10.10;83.40;;;;;;5033892;28;20437;-77
2021/10/14 01:58:21;;;;;;;0.00;0.00;;;10.10;83.50;;;;;;5033549;28;20535;-76
2021/10/14 02:00:49;;;;;;;0.00;0.00;;;10.10;83.50;;;;;;5033430;28;20033;-77
2021/10/14 02:03:15;;;;;;;0.00;0.00;;;10.10;83.70;;;;;;5033479;28;20026;-76
2021/10/14 02:05:41;;;;;;;0.00;0.00;;;10.10;83.70;;;;;;5033553;28;20037;-76
2021/10/14 02:08:07;;;;;;;0.00;0.00;;;10.10;83.80;;;;;;5033752;28;20032;-76
2021/10/14 02:10:33;;;;;;;0.00;0.00;;;10.10;83.80;;;;;;5016488;28;20062;-76
2021/10/14 02:12:59;;;;;;;0.00;0.00;;;10.20;84.00;;;;;;5033833;28;20034;-77
2021/10/14 02:15:25;;;;;;;0.00;0.00;;;10.20;83.90;;;;;;5015997;28;20025;-76
2021/10/14 02:17:51;;;;;;;0.00;0.00;;;10.20;83.60;;;;;;5033845;28;20095;-78
2021/10/14 02:20:17;;;;;;;0.00;0.00;;;10.20;83.70;;;;;;5033608;28;20025;-76
2021/10/14 02:22:43;;;;;;;0.00;0.00;;;10.20;83.60;;;;;;5015820;28;20456;-75
2021/10/14 02:25:12;;;;;;;0.00;0.00;;;10.10;83.60;;;;;;5033962;28;20086;-75
2021/10/14 02:27:38;;;;;;;0.00;0.00;;;10.20;83.60;;;;;;5015903;28;20021;-74
2021/10/14 02:30:06;;;;;;;0.00;0.00;;;10.10;83.50;;;;;;5033511;28;20378;-76
2021/10/14 02:32:32;;;;;;;0.00;0.00;;;10.10;83.70;;;;;;5015234;28;20592;-75
2021/10/14 02:34:58;;;;;;;0.00;0.00;;;10.10;83.70;;;;;;5015872;28;20046;-75
2021/10/14 02:37:25;;;;;;;0.00;0.00;;;10.10;83.60;;;;;;5033457;28;20021;-75
2021/10/14 02:39:50;;;;;;;0.00;0.00;;;10.20;83.70;;;;;;5033342;28;20377;-75
2021/10/14 02:42:16;;;;;;;0.00;0.00;;;10.20;83.60;;;;;;5033325;28;20025;-76
2021/10/14 02:44:42;;;;;;;0.00;0.00;;;10.20;83.40;;;;;;5015820;28;20041;-76
2021/10/14 02:47:08;;;;;;;0.00;0.00;;;10.20;83.40;;;;;;5033605;28;20061;-76
2021/10/14 02:49:34;;;;;;;0.00;0.00;;;10.20;83.40;;;;;;5033231;28;20428;-76
2021/10/14 02:52:00;;;;;;;0.00;0.00;;;10.20;83.50;;;;;;5033516;28;20022;-75
2021/10/14 02:54:27;;;;;;;0.00;0.00;;;10.20;83.30;;;;;;5033506;28;20025;-76
2021/10/14 02:56:53;;;;;;;0.00;0.00;;;10.20;83.30;;;;;;5016090;28;20034;-77
2021/10/14 02:59:18;;;;;;;0.00;0.00;;;10.20;83.20;;;;;;5033949;28;20386;-74
2021/10/14 03:01:44;;;;;;;0.00;0.00;;;10.20;83.20;;;;;;5033852;28;20032;-76
2021/10/14 03:04:10;;;;;;;0.00;0.00;;;10.20;83.00;;;;;;5033541;28;20373;-76
2021/10/14 03:06:36;;;;;;;0.00;0.00;;;10.20;83.10;;;;;;5033641;28;20029;-76
2021/10/14 03:09:02;;;;;;;0.00;0.00;;;10.20;83.00;;;;;;5032990;28;20021;-76
2021/10/14 03:11:27;;;;;;;0.00;0.00;;;10.20;82.90;;;;;;5036061;28;20112;-76
2021/10/14 03:13:53;;;;;;;0.00;0.00;;;10.10;82.70;;;;;;5036830;28;20112;-76
2021/10/14 03:16:19;;;;;;;0.00;0.00;;;10.20;82.70;;;;;;5037054;28;20534;-75
2021/10/14 03:18:45;;;;;;;0.00;0.00;;;10.10;82.80;;;;;;5037017;28;20025;-75
2021/10/14 03:21:11;;;;;;;0.00;0.00;;;10.10;83.10;;;;;;5036898;28;20029;-76
2021/10/14 03:23:37;;;;;;;0.00;0.00;;;10.00;83.10;;;;;;5036827;28;20373;-75
2021/10/14 03:26:04;;;;;;;0.00;0.00;;;10.00;83.10;;;;;;5036668;28;20108;-75
2021/10/14 03:28:30;;;;;;;0.00;0.00;;;10.00;83.00;;;;;;5036549;28;20026;-75
2021/10/14 03:30:56;;;;;;;0.00;0.00;;;10.00;82.90;;;;;;5036709;28;20028;-77
2021/10/14 03:33:23;;;;;;;0.00;0.00;;;10.00;83.00;;;;;;5036709;28;20103;-75
2021/10/14 03:35:48;;;;;;;0.00;0.00;;;10.00;83.00;;;;;;5018986;28;20033;-76
2021/10/14 03:38:14;;;;;;;0.00;0.00;;;10.00;82.90;;;;;;5018908;28;20026;-75
2021/10/14 03:40:40;;;;;;;0.00;0.00;;;10.00;83.00;;;;;;5036808;28;20097;-75
2021/10/14 03:43:06;;;;;;;0.00;0.00;;;10.00;82.90;;;;;;5018688;28;20033;-77
2021/10/14 03:45:32;;;;;;;0.00;0.00;;;10.00;82.70;;;;;;5036370;28;20458;-76
2021/10/14 03:47:58;;;;;;;0.00;0.00;;;10.00;82.70;;;;;;5036059;28;20075;-76
2021/10/14 03:50:23;;;;;;;0.00;0.00;;;9.90;82.50;;;;;;5036374;28;20033;-76
2021/10/14 03:52:49;;;;;;;0.00;0.00;;;9.90;82.70;;;;;;5018549;28;20116;-75
2021/10/14 03:55:15;;;;;;;0.00;0.00;;;9.90;82.70;;;;;;5036429;28;20025;-74
2021/10/14 03:57:40;;;;;;;0.00;0.00;;;9.90;82.80;;;;;;5018610;28;20026;-76
2021/10/14 04:00:08;;;;;;;0.00;0.00;;;9.80;82.90;;;;;;5036039;28;20084;-76
2021/10/14 04:02:33;;;;;;;0.00;0.00;;;9.90;82.80;;;;;;5035316;28;20033;-75
2021/10/14 04:04:59;;;;;;;0.00;0.00;;;9.80;82.70;;;;;;5036135;28;20113;-76
2021/10/14 04:07:25;;;;;;;0.00;0.00;;;9.80;82.70;;;;;;5017992;28;20029;-75
2021/10/14 04:09:51;;;;;;;0.00;0.00;;;9.80;82.80;;;;;;5018546;28;20072;-74
2021/10/14 04:12:16;;;;;;;0.00;0.00;;;9.80;82.80;;;;;;5035803;28;20029;-74
2021/10/14 04:14:42;;;;;;;0.00;0.00;;;9.80;82.80;;;;;;5035710;28;20025;-75
2021/10/14 04:17:08;;;;;;;0.00;0.00;;;9.80;82.80;;;;;;5034637;28;20036;-75
2021/10/14 04:19:34;;;;;;;0.00;0.00;;;9.70;82.70;;;;;;5035499;28;20029;-75
2021/10/14 04:22:00;;;;;;;0.00;0.00;;;9.80;82.70;;;;;;5034952;28;20025;-76
2021/10/14 04:24:28;;;;;;;0.00;0.00;;;9.80;82.80;;;;;;5017863;28;20033;-76
2021/10/14 04:26:55;;;;;;;0.00;0.00;;;9.70;82.70;;;;;;5035669;28;20071;-76
2021/10/14 04:29:21;;;;;;;0.00;0.00;;;9.70;82.70;;;;;;5017635;28;20424;-77
2021/10/14 04:31:47;;;;;;;0.00;0.00;;;9.70;82.70;;;;;;5035497;28;20029;-77
2021/10/14 04:34:13;;;;;;;0.00;0.00;;;9.70;82.90;;;;;;5017185;28;20102;-76
2021/10/14 04:36:39;;;;;;;0.00;0.00;;;9.70;82.80;;;;;;5035317;28;20389;-76
2021/10/14 04:39:06;;;;;;;0.00;0.00;;;9.70;82.70;;;;;;5035368;28;20033;-75
2021/10/14 04:41:33;;;;;;;0.00;0.00;;;9.70;82.40;;;;;;5016831;28;20401;-75
2021/10/14 04:43:59;;;;;;;0.00;0.00;;;9.70;82.40;;;;;;5035475;28;20036;-75
2021/10/14 04:46:25;;;;;;;0.00;0.00;;;9.70;82.40;;;;;;5035233;28;20037;-76
2021/10/14 04:48:51;;;;;;;0.00;0.00;;;9.60;82.20;;;;;;5035136;28;20067;-76
2021/10/14 04:51:16;;;;;;;0.00;0.00;;;9.60;82.30;;;;;;5017323;28;20064;-77
2021/10/14 04:53:42;;;;;;;0.00;0.00;;;9.60;82.40;;;;;;5001149;28;20465;-76
2021/10/14 04:56:08;;;;;;;0.00;0.00;;;9.60;82.50;;;;;;5034626;28;20036;-77
2021/10/14 04:58:34;;;;;;;0.00;0.00;;;9.50;82.60;;;;;;5034836;28;20026;-75
2021/10/14 05:01:00;;;;;;;0.00;0.00;;;9.50;82.60;;;;;;5041436;28;20025;-76
2021/10/14 05:03:25;;;;;;;0.00;0.00;;;9.50;82.70;;;;;;5070263;28;20034;-77
2021/10/14 05:05:51;;;;;;;0.00;0.00;;;9.50;82.50;;;;;;5071637;28;20036;-79
2021/10/14 05:08:17;;;;;;;0.00;0.00;;;9.50;82.60;;;;;;5034823;28;20104;-77
2021/10/14 05:10:43;;;;;;;0.00;0.00;;;9.40;82.50;;;;;;5017051;28;20021;-77
2021/10/14 05:13:09;;;;;;;0.00;0.00;;;9.40;82.40;;;;;;5034794;28;20064;-77
2021/10/14 05:15:39;;;;;;;0.00;0.00;;;9.40;82.50;;;;;;5034837;28;20021;-76
2021/10/14 05:18:04;;;;;;;0.00;0.00;;;9.40;82.50;;;;;;5034267;28;20040;-77
2021/10/14 05:20:30;;;;;;;0.00;0.00;;;9.40;82.50;;;;;;5034332;28;20470;-76
2021/10/14 05:22:56;;;;;;;0.00;0.00;;;9.40;82.70;;;;;;5034421;28;20110;-77
2021/10/14 05:25:22;;;;;;;0.00;0.00;;;9.30;82.70;;;;;;5016995;28;20040;-76
2021/10/14 05:27:49;;;;;;;0.00;0.00;;;9.40;82.90;;;;;;5034638;28;20030;-77
2021/10/14 05:30:15;;;;;;;0.00;0.00;;;9.40;82.80;;;;;;5034466;28;20030;-77
2021/10/14 05:32:41;;;;;;;0.00;0.00;;;9.40;82.80;;;;;;5033429;28;20440;-76
2021/10/14 05:35:07;;;;;;;0.00;0.00;;;9.50;82.80;;;;;;5016471;28;20049;-75
2021/10/14 05:37:34;;;;;;;0.00;0.00;;;9.50;82.60;;;;;;5016784;28;20030;-77
2021/10/14 05:40:00;;;;;;;0.00;0.00;;;9.60;82.50;;;;;;5034025;28;20033;-77
2021/10/14 05:42:26;;;;;;;0.00;0.00;;;9.60;82.30;;;;;;5000179;28;20029;-74
2021/10/14 05:44:52;;;;;;;0.00;0.00;;;9.60;82.10;;;;;;5033694;28;20483;-75
2021/10/14 05:47:17;;;;;;;0.00;0.00;;;9.60;82.10;;;;;;5034104;28;20370;-76
2021/10/14 05:49:43;;;;;;;0.00;0.00;;;9.70;82.20;;;;;;5034014;28;20370;-76
2021/10/14 05:52:09;;;;;;;0.00;0.00;;;9.70;82.00;;;;;;5033929;28;20052;-75
2021/10/14 05:54:35;;;;;;;0.00;0.00;;;9.70;81.50;;;;;;5034140;28;20373;-75
2021/10/14 05:57:01;;;;;;;0.00;0.00;;;9.80;81.40;;;;;;5034022;28;20037;-76
2021/10/14 05:59:27;;;;;;;0.00;0.00;;;9.70;81.20;;;;;;5033961;28;20033;-75
2021/10/14 06:01:52;;;;;;;0.00;0.00;;;9.70;81.30;;;;;;5033704;28;20109;-76
2021/10/14 06:04:19;;;;;;;0.00;0.00;;;9.80;81.30;;;;;;5033562;28;20033;-75
2021/10/14 06:06:45;;;;;;;0.00;0.00;;;9.80;81.60;;;;;;5034187;28;20041;-75
2021/10/14 06:09:10;;;;;;;0.00;0.00;;;9.90;81.60;;;;;;5033419;28;20021;-75
2021/10/14 06:11:36;;;;;;;0.00;0.00;;;10.00;81.40;;;;;;5033710;28;20029;-76
2021/10/14 06:14:02;;;;;;;0.00;0.00;;;10.10;81.10;;;;;;5033383;28;20428;-76
2021/10/14 06:16:27;;;;;;;0.00;0.00;;;10.20;80.70;;;;;;5033540;28;20029;-76
2021/10/14 06:18:53;;;;;;;0.00;0.00;;;10.30;80.70;;;;;;5033050;28;20029;-77
2021/10/14 06:21:19;;;;;;;0.00;0.00;;;10.40;80.40;;;;;;5015895;28;20034;-77
2021/10/14 06:23:45;;;;;;;0.00;0.00;;;10.50;79.80;;;;;;5033840;28;20026;-77
2021/10/14 06:26:11;;;;;;;0.00;0.00;;;10.50;79.30;;;;;;5033283;28;20040;-77
2021/10/14 06:28:37;;;;;;;0.00;0.00;;;10.60;79.10;;;;;;5033429;28;20060;-77
2021/10/14 06:31:03;;;;;;;0.00;0.00;;;10.60;78.80;;;;;;5033463;28;20040;-77
2021/10/14 06:33:29;;;;;;;0.00;0.00;;;10.60;78.50;;;;;;5033242;28;20042;-75
2021/10/14 06:35:55;;;;;;;0.00;0.00;;;10.60;78.00;;;;;;5033408;28;20053;-76
2021/10/14 06:38:21;;;;;;;0.00;0.00;;;10.50;78.00;;;;;;5015797;28;20097;-76
2021/10/14 06:40:47;;;;;;;0.00;0.00;;;10.50;77.70;;;;;;4999388;28;20075;-77
2021/10/14 06:43:12;;;;;;;0.00;0.00;;;10.40;77.60;;;;;;5037266;28;20163;-77
2021/10/14 06:45:38;;;;;;;0.00;0.00;;;10.30;77.70;;;;;;5028750;28;20021;-77
2021/10/14 06:48:05;;;;;;;0.00;0.00;;;10.30;78.00;;;;;;5046746;28;20026;-77
2021/10/14 06:50:31;;;;;;;0.00;0.00;;;10.30;78.00;;;;;;5027506;28;20470;-77
2021/10/14 06:52:57;;;;;;;0.00;0.00;;;10.30;78.30;;;;;;5029284;28;20024;-76
2021/10/14 06:55:23;;;;;;;0.00;0.00;;;10.40;78.20;;;;;;5044384;28;20067;-76
2021/10/14 06:57:49;;;;;;;0.00;0.00;;;10.50;77.80;;;;;;5047605;28;20025;-76
2021/10/14 07:00:15;;;;;;;0.00;0.00;;;10.60;78.00;;;;;;5052866;28;20025;-78
2021/10/14 07:02:41;;;;;;;0.00;0.00;;;10.70;77.90;;;;;;5034600;28;20467;-79
2021/10/14 07:05:07;;;;;;;0.00;0.00;;;10.80;77.50;;;;;;5045769;28;20153;-77
2021/10/14 07:07:32;;;;;;;0.00;0.00;;;11.00;77.10;;;;;;5039295;28;20373;-76
2021/10/14 07:09:58;;;;;;;0.00;0.00;;;11.10;76.60;;;;;;5042857;28;20029;-77
2021/10/14 07:12:29;;;;;;;0.00;0.00;;;11.30;76.20;;;;;;5046270;28;20457;-80
2021/10/14 07:14:55;;;;;;;0.00;0.00;;;11.50;76.00;;;;;;5044162;28;20077;-82
2021/10/14 07:17:21;;;;;;;0.00;0.00;;;11.60;75.80;;;;;;5041930;28;20024;-77
2021/10/14 07:19:47;;;;;;;0.00;0.00;;;11.90;75.10;;;;;;5034037;28;20064;-79
2021/10/14 07:22:13;;;;;;;0.00;0.00;;;12.10;74.20;;;;;;5049467;28;20481;-79
2021/10/14 07:24:39;;;;;;;0.00;0.00;;;12.20;73.80;;;;;;5049229;28;20477;-78
2021/10/14 07:27:07;;;;;;;0.00;0.00;;;12.30;73.20;;;;;;5030443;28;20037;-77
2021/10/14 07:29:34;;;;;;;0.00;0.00;;;12.50;72.90;;;;;;5055688;28;20419;-80
2021/10/14 07:32:00;;;;;;;0.00;0.00;;;12.70;72.40;;;;;;5032466;28;20025;-79
2021/10/14 07:34:26;;;;;;;0.00;0.00;;;12.80;71.40;;;;;;5029214;28;20041;-78
2021/10/14 07:36:52;;;;;;;0.00;0.00;;;13.00;71.00;;;;;;5056472;28;20068;-77
2021/10/14 07:39:18;;;;;;;0.00;0.00;;;13.10;70.60;;;;;;5056172;28;20416;-77
2021/10/14 07:41:47;;;;;;;0.00;0.00;;;13.40;70.20;;;;;;5056334;28;20028;-76
2021/10/14 07:44:13;;;;;;;0.00;0.00;;;13.50;69.00;;;;;;5055168;28;20162;-78
2021/10/14 07:46:40;;;;;;;0.00;0.00;;;13.60;68.50;;;;;;5055155;28;20033;-77
2021/10/14 07:49:06;;;;;;;0.00;0.00;;;13.80;68.30;;;;;;5045548;28;20030;-76
2021/10/14 07:51:32;;;;;;;0.00;0.00;;;14.10;68.20;;;;;;5034817;28;20037;-76
2021/10/14 07:53:57;;;;;;;0.00;0.00;;;14.50;67.80;;;;;;5036237;28;20112;-76
2021/10/14 07:56:23;;;;;;;0.00;0.00;;;15.00;67.40;;;;;;5039118;28;20064;-79
2021/10/14 07:58:50;;;;;;;0.00;0.00;;;15.40;66.00;;;;;;5047459;28;20032;-76
2021/10/14 08:01:15;;;;;;;0.00;0.00;;;15.90;65.80;;;;;;5055967;28;20103;-77
2021/10/14 08:03:41;;;;;;;0.00;0.00;;;16.40;65.10;;;;;;5056176;28;20124;-76
2021/10/14 08:06:07;;;;;;;0.00;0.00;;;17.20;64.00;;;;;;5048058;28;20044;-76
2021/10/14 08:08:33;;;;;;;0.00;0.00;;;18.10;62.20;;;;;;5040116;28;20056;-77
2021/10/14 08:10:58;;;;;;;0.00;0.00;;;18.90;59.70;;;;;;5036057;28;20022;-77
2021/10/14 08:13:24;;;;;;;0.00;0.00;;;19.40;56.30;;;;;;5030272;28;20103;-77
2021/10/14 08:15:52;;;;;;;0.00;0.00;;;19.80;54.40;;;;;;5024348;28;20068;-77
2021/10/14 08:18:20;;;;;;;0.00;0.00;;;20.40;53.30;;;;;;5024401;28;20390;-77
2021/10/14 08:20:48;;;;;;;0.00;0.00;;;20.90;51.40;;;;;;5023325;28;20060;-77
2021/10/14 08:23:14;;;;;;;0.00;0.00;;;21.30;50.00;;;;;;5026450;28;20547;-76
2021/10/14 08:25:40;;;;;;;0.00;0.00;;;21.60;49.10;;;;;;5025585;28;20021;-78
2021/10/14 08:28:06;;;;;;;0.00;0.00;;;22.00;48.80;;;;;;5009751;28;20401;-76
2021/10/14 08:30:31;;;;;;;0.00;0.00;;;22.60;47.50;;;;;;5023956;28;20029;-77
2021/10/14 08:32:57;;;;;;;0.00;0.00;;;23.00;46.90;;;;;;5016807;28;20417;-76
2021/10/14 08:35:23;;;;;;;0.00;0.00;;;23.50;46.00;;;;;;5026121;28;20052;-76
2021/10/14 08:37:49;;;;;;;0.00;0.00;;;23.70;45.50;;;;;;5019365;28;20470;-76
2021/10/14 08:40:16;;;;;;;0.00;0.00;;;23.50;44.40;;;;;;5015669;28;20030;-76
2021/10/14 08:42:43;;;;;;;0.00;0.00;;;23.80;43.80;;;;;;5013198;28;20030;-77
2021/10/14 08:45:11;;;;;;;0.00;0.00;;;23.60;43.50;;;;;;5036143;28;20034;-78
2021/10/14 08:47:38;;;;;;;0.00;0.00;;;23.90;43.10;;;;;;5035709;28;20036;-77
2021/10/14 08:50:06;;;;;;;0.00;0.00;;;24.10;42.30;;;;;;5033705;28;20033;-77
2021/10/14 08:52:32;;;;;;;0.00;0.00;;;24.20;42.00;;;;;;5017533;28;20288;-76
2021/10/14 08:54:58;;;;;;;0.00;0.00;;;24.40;41.90;;;;;;5035271;28;20370;-77
2021/10/14 08:57:28;;;;;;;0.00;0.00;;;24.60;42.00;;;;;;5034606;28;20033;-77
2021/10/14 08:59:53;;;;;;;0.00;0.00;;;24.90;41.50;;;;;;5033899;28;20035;-77
2021/10/14 09:02:20;;;;;;;0.00;0.00;;;25.10;40.60;;;;;;5034664;28;20026;-75
2021/10/14 09:04:48;;;;;;;0.00;0.00;;;25.20;40.40;;;;;;5034719;28;20026;-78
2021/10/14 09:07:15;;;;;;;0.00;0.00;;;25.20;40.20;;;;;;5037938;28;20496;-79
2021/10/14 09:09:42;;;;;;;0.00;0.00;;;25.40;40.10;;;;;;5040140;28;20120;-77
2021/10/14 09:12:11;;;;;;;0.00;0.00;;;25.80;40.00;;;;;;5044754;28;20048;-77
2021/10/14 09:14:58;;;;;;;0.00;0.00;;;26.00;39.70;;;;;;5048575;28;20032;-78
2021/10/14 09:17:45;;;;;;;0.00;0.00;;;25.80;39.20;;;;;;5033523;28;20442;-78
2021/10/14 09:20:31;;;;;;;0.00;0.00;;;25.10;39.00;;;;;;5039754;28;20120;-78
2021/10/14 09:23:12;;;;;;;0.00;0.00;;;24.70;39.60;;;;;;5029215;28;20379;-79
2021/10/14 09:28:36;;;;;;;0.00;0.00;;;25.40;38.60;;;;;;5029402;28;20070;-81
2021/10/14 09:31:07;;;;;;;0.00;0.00;;;25.10;37.80;;;;;;5039042;28;20060;-79
2021/10/14 09:33:38;;;;;;;0.00;0.00;;;24.70;38.30;;;;;;5049150;28;20049;-81
2021/10/14 09:36:21;;;;;;;0.00;0.00;;;24.80;38.90;;;;;;5053334;28;20028;-80
2021/10/14 09:39:06;;;;;;;0.00;0.00;;;25.70;38.70;;;;;;5055023;28;20380;-79
2021/10/14 09:41:40;;;;;;;0.00;0.00;;;26.50;38.50;;;;;;5052026;28;20036;-81
2021/10/14 09:44:08;;;;;;;0.00;0.00;;;27.30;37.50;;;;;;5029179;28;20068;-80
2021/10/14 09:46:36;;;;;;;0.00;0.00;;;26.90;37.20;;;;;;5034278;28;20120;-80
2021/10/14 09:49:08;;;;;;;0.00;0.00;;;27.00;37.50;;;;;;5034506;28;20026;-79
2021/10/14 09:51:34;;;;;;;0.00;0.00;;;27.50;36.60;;;;;;5033016;28;20366;-80
2021/10/14 09:54:00;;;;;;;0.00;0.00;;;27.40;35.80;;;;;;5033984;28;20029;-78
2021/10/14 09:56:36;;;;;;;0.00;0.00;;;28.00;36.20;;;;;;5032496;28;20025;-77
2021/10/14 09:59:04;;;;;;;0.00;0.00;;;28.60;34.70;;;;;;5033459;28;20116;-79
2021/10/14 10:01:36;;;;;;;0.00;0.00;;;28.60;34.60;;;;;;5033620;28;20025;-78
2021/10/14 10:04:10;;;;;;;0.00;0.00;;;28.70;34.30;;;;;;5033821;28;20036;-77
2021/10/14 10:06:41;;;;;;;0.00;0.00;;;28.60;34.10;;;;;;5033037;28;20112;-78
2021/10/14 10:09:16;;;;;;;0.00;0.00;;;28.40;33.90;;;;;;5032198;28;20037;-79
2021/10/14 10:11:46;;;;;;;0.00;0.00;;;28.20;34.30;;;;;;5036378;28;20488;-78
2021/10/14 10:14:14;;;;;;;0.00;0.00;;;28.60;34.50;;;;;;5047079;28;20037;-81
2021/10/14 10:16:54;;;;;;;0.00;0.00;;;29.20;34.40;;;;;;5052229;28;20043;-77
2021/10/14 10:19:41;;;;;;;0.00;0.00;;;29.60;33.80;;;;;;5046147;28;20473;-79
2021/10/14 10:22:07;;;;;;;0.00;0.00;;;30.00;33.20;;;;;;5033697;28;20025;-78
2021/10/14 10:24:34;;;;;;;0.00;0.00;;;30.50;33.40;;;;;;5031882;28;20469;-78
2021/10/14 10:27:05;;;;;;;0.00;0.00;;;30.90;33.10;;;;;;5032274;28;20061;-78
2021/10/14 10:29:53;;;;;;;0.00;0.00;;;30.80;32.40;;;;;;5037381;28;20053;-77
2021/10/14 10:32:22;;;;;;;0.00;0.00;;;29.70;31.90;;;;;;5041002;28;20037;-79
2021/10/14 10:35:00;;;;;;;0.00;0.00;;;28.40;32.40;;;;;;5047677;28;20512;-79
2021/10/14 10:37:26;;;;;;;0.00;0.00;;;27.60;32.30;;;;;;5053084;28;20028;-79
2021/10/14 10:40:01;;;;;;;0.00;0.00;;;27.50;33.50;;;;;;5035265;28;20025;-78
2021/10/14 10:42:29;;;;;;;0.00;0.00;;;28.10;33.30;;;;;;5052447;28;20078;-77
2021/10/14 10:45:11;;;;;;;0.00;0.00;;;28.60;34.10;;;;;;5053263;28;20036;-79
2021/10/14 10:47:37;;;;;;;0.00;0.00;;;29.10;32.70;;;;;;5052955;28;20029;-77
2021/10/14 10:50:05;;;;;;;0.00;0.00;;;29.40;32.50;;;;;;5035485;28;20075;-77
2021/10/14 10:52:39;;;;;;;0.00;0.00;;;29.30;32.10;;;;;;5035295;28;20120;-78
2021/10/14 10:55:25;;;;;;;0.00;0.00;;;29.50;32.00;;;;;;5052913;28;20032;-77
2021/10/14 10:57:53;;;;;;;0.00;0.00;;;29.20;31.00;;;;;;5041736;28;20052;-77
2021/10/14 11:00:20;;;;;;;0.00;0.00;;;28.80;31.50;;;;;;5053130;28;20025;-84
2021/10/14 11:02:46;;;;;;;0.00;0.00;;;28.50;31.80;;;;;;5053051;28;20416;-78
2021/10/14 11:05:12;;;;;;;0.00;0.00;;;27.50;32.20;;;;;;5053146;28;20067;-78
2021/10/14 11:07:38;;;;;;;0.00;0.00;;;26.70;33.30;;;;;;5053041;28;20021;-79
2021/10/14 11:10:05;;;;;;;0.00;0.00;;;26.50;33.60;;;;;;5035118;28;20049;-78
2021/10/14 11:12:32;;;;;;;0.00;0.00;;;25.80;33.50;;;;;;5052808;28;20029;-79
2021/10/14 11:14:57;;;;;;;0.00;0.00;;;25.00;34.20;;;;;;5052723;28;20025;-78
2021/10/14 11:17:26;;;;;;;0.00;0.00;;;23.80;35.30;;;;;;5050896;28;20048;-78
2021/10/14 11:20:07;;;;;;;0.00;0.00;;;23.30;36.80;;;;;;5053045;28;20036;-77
2021/10/14 11:22:34;;;;;;;0.00;0.00;;;23.90;36.80;;;;;;5035016;28;20029;-77
2021/10/14 11:25:14;;;;;;;0.00;0.00;;;24.00;36.00;;;;;;5034903;28;20041;-77
2021/10/14 11:27:40;;;;;;;0.00;0.00;;;23.20;36.30;;;;;;5052524;28;20052;-74
2021/10/14 11:30:21;;;;;;;0.00;0.00;;;22.50;37.30;;;;;;5031381;28;20033;-78
2021/10/14 11:32:57;;;;;;;0.00;0.00;;;22.80;37.80;;;;;;5056942;28;20457;-79
2021/10/14 11:35:24;;;;;;;0.00;0.00;;;23.00;37.40;;;;;;5057482;28;20048;-79
2021/10/14 11:37:50;;;;;;;0.00;0.00;;;22.90;38.40;;;;;;5076070;28;20052;-78
2021/10/14 11:40:35;;;;;;;0.00;0.00;;;23.20;37.80;;;;;;5076074;28;20430;-79
2021/10/14 11:43:01;;;;;;;0.00;0.00;;;22.90;37.20;;;;;;5076206;28;20032;-78
2021/10/14 11:48:54;;;;;;;0.00;0.00;;;21.60;38.30;;;;;;5076282;28;20069;-78
2021/10/14 11:51:20;;;;;;;0.00;0.00;;;21.50;39.30;;;;;;5074673;28;20368;-79
2021/10/14 11:53:55;;;;;;;0.00;0.00;;;21.80;39.20;;;;;;5073130;28;20036;-79
2021/10/14 11:56:21;;;;;;;0.00;0.00;;;21.70;39.20;;;;;;5074005;28;20070;-82
2021/10/14 11:58:47;;;;;;;0.00;0.00;;;21.50;39.10;;;;;;5059587;28;20037;-80
2021/10/14 12:01:14;;;;;;;0.00;0.00;;;21.10;39.40;;;;;;5054719;28;20509;-78
2021/10/14 12:03:42;;;;;;;0.00;0.00;;;20.80;40.00;;;;;;5037481;28;20029;-81
2021/10/14 12:06:09;;;;;;;0.00;0.00;;;20.40;40.80;;;;;;5030611;28;20124;-77
2021/10/14 12:08:37;;;;;;;0.00;0.00;;;19.90;41.30;;;;;;5035976;28;20068;-77
2021/10/14 12:11:21;;;;;;;0.00;0.00;;;19.80;42.10;;;;;;5021128;28;20030;-78
2021/10/14 12:14:01;;;;;;;0.00;0.00;;;20.10;41.80;;;;;;5035741;28;20545;-76
2021/10/14 12:16:29;;;;;;;0.00;0.00;;;19.90;41.70;;;;;;5016635;28;20075;-78
2021/10/14 12:19:11;;;;;;;0.00;0.00;;;19.50;42.10;;;;;;5035441;28;20083;-77
2021/10/14 12:21:39;;;;;;;0.00;0.00;;;19.70;43.00;;;;;;5045352;28;20029;-79
2021/10/14 12:24:13;;;;;;;0.00;0.00;;;20.90;42.70;;;;;;5037753;28;20039;-77
2021/10/14 12:26:47;;;;;;;0.00;0.00;;;22.30;40.20;;;;;;5034693;28;20432;-77
2021/10/14 12:29:21;;;;;;;0.00;0.00;;;23.30;38.70;;;;;;5055193;28;20025;-76
2021/10/14 12:31:48;;;;;;;0.00;0.00;;;23.70;37.20;;;;;;5051434;28;20461;-76
2021/10/14 12:34:14;;;;;;;0.00;0.00;;;23.40;36.80;;;;;;5053013;28;20485;-77
2021/10/14 12:36:47;;;;;;;0.00;0.00;;;22.60;37.20;;;;;;5054840;28;20124;-77
2021/10/14 12:39:20;;;;;;;0.00;0.00;;;21.80;38.10;;;;;;5050112;28;20549;-80
2021/10/14 12:41:54;;;;;;;0.00;0.00;;;21.10;38.60;;;;;;5051378;28;20021;-77
2021/10/14 12:44:28;;;;;;;0.00;0.00;;;20.40;39.40;;;;;;5054982;28;20092;-76
2021/10/14 12:47:01;;;;;;;0.00;0.00;;;19.90;40.00;;;;;;5055059;28;20107;-77
2021/10/14 12:53:14;;;;;;;0.00;0.00;;;18.80;40.90;;;;;;5055038;28;20024;-78
2021/10/14 12:55:59;;;;;;;0.00;0.00;;;18.70;41.60;;;;;;5054525;28;20491;-76
2021/10/14 12:58:26;;;;;;;0.00;0.00;;;18.60;41.80;;;;;;5054543;28;20500;-78
2021/10/14 13:01:00;;;;;;;0.00;0.00;;;18.20;41.60;;;;;;5069316;28;20036;-78